首页
METAR-TAF:

METAR-TAF

机场 :

Hunter Army Airfield / Fort Stewart

薩凡納, 喬治亞, 美国

纬度: 32-01N, 经度: 081-09W, 海拔: 13米

当前天气观测

该预报发布于20分钟前的20:56 UTC
风速5节,风向南转南东
温度 23°C
湿度 57%
气压 1020 hPa
能見度: 16.1公里
阴天层高于7500英尺

METAR: KSVN 262056Z AUTO 16005KT 10SM OVC075 23/14 A3011 RMK AO2 SLP199 T02320136 56007 $

时间: 16:16 (21:16 UTC)

预报

该预报发布于16分钟前的21:00 UTC
预报有效从26日的 21点(UTC)到 28日的 03点(UTC)
风速6节,风向多变
能见度10公里或以上
散云层高于4000英尺
成为
从 27日的 17点(UTC)到 27日的 18点(UTC)
风速9节,风向南转南东
能见度10公里或以上
散云层高于2500英尺

TAF: KSVN 262100Z 2621/2803 VRB06KT 9999 SCT040 QNH3008INS BECMG 2717/2718 15009KT 9999 SCT025 QNH3011INS TX26/2720Z TN11/2711Z

超过4000个机场的气象观测和天气预报(METAR&TAF报告)。

可查询的气象台以黄色和红色小点在地图上表示。

将鼠标移到小点上方,可查看气象台名称。

然后点击查看天气观测和预报。

如需切换地图:点击带黑十字的绿色按钮放大地图;点击带横线的绿色按钮缩小地图;或者点击绿色箭头查看邻近地区的地图。


METAR-TAF: